sensor_id;sensor_type;location;lat;lon;timestamp;P1;durP1;ratioP1;P2;durP2;ratioP2
39050;SDS011;24805;55.852;37.644;2023-12-20T00:01:07;1.85;;;0.43;;
39050;SDS011;24805;55.852;37.644;2023-12-20T00:06:09;1.05;;;0.52;;
39050;SDS011;24805;55.852;37.644;2023-12-20T00:11:12;1.08;;;0.55;;
39050;SDS011;24805;55.852;37.644;2023-12-20T00:16:14;2.42;;;0.60;;
39050;SDS011;24805;55.852;37.644;2023-12-20T00:21:16;1.77;;;0.63;;
39050;SDS011;24805;55.852;37.644;2023-12-20T00:26:18;0.90;;;0.70;;
39050;SDS011;24805;55.852;37.644;2023-12-20T00:31:21;1.70;;;0.63;;
39050;SDS011;24805;55.852;37.644;2023-12-20T00:36:23;1.45;;;0.63;;
39050;SDS011;24805;55.852;37.644;2023-12-20T00:41:25;3.13;;;0.50;;
39050;SDS011;24805;55.852;37.644;2023-12-20T00:46:28;0.82;;;0.60;;
39050;SDS011;24805;55.852;37.644;2023-12-20T00:51:30;1.05;;;0.55;;
39050;SDS011;24805;55.852;37.644;2023-12-20T00:56:32;1.45;;;0.63;;
39050;SDS011;24805;55.852;37.644;2023-12-20T01:01:34;1.70;;;0.40;;
39050;SDS011;24805;55.852;37.644;2023-12-20T01:06:37;0.77;;;0.47;;
39050;SDS011;24805;55.852;37.644;2023-12-20T01:11:39;1.90;;;0.55;;
39050;SDS011;24805;55.852;37.644;2023-12-20T01:16:41;1.00;;;0.63;;
39050;SDS011;24805;55.852;37.644;2023-12-20T01:21:43;1.85;;;0.70;;
39050;SDS011;24805;55.852;37.644;2023-12-20T01:26:45;2.83;;;1.77;;
39050;SDS011;24805;55.852;37.644;2023-12-20T01:31:48;1.95;;;1.20;;
39050;SDS011;24805;55.852;37.644;2023-12-20T01:36:50;1.75;;;0.93;;
39050;SDS011;24805;55.852;37.644;2023-12-20T01:41:53;2.55;;;0.93;;
39050;SDS011;24805;55.852;37.644;2023-12-20T01:46:55;2.00;;;1.17;;
39050;SDS011;24805;55.852;37.644;2023-12-20T01:51:59;2.78;;;1.30;;
39050;SDS011;24805;55.852;37.644;2023-12-20T01:57:01;2.85;;;1.08;;
39050;SDS011;24805;55.852;37.644;2023-12-20T02:02:05;1.90;;;1.20;;
39050;SDS011;24805;55.852;37.644;2023-12-20T02:07:07;1.83;;;0.95;;
39050;SDS011;24805;55.852;37.644;2023-12-20T02:12:10;2.03;;;0.93;;
39050;SDS011;24805;55.852;37.644;2023-12-20T02:17:13;3.17;;;1.20;;
39050;SDS011;24805;55.852;37.644;2023-12-20T02:22:15;2.47;;;0.65;;
39050;SDS011;24805;55.852;37.644;2023-12-20T02:27:18;4.03;;;0.75;;
39050;SDS011;24805;55.852;37.644;2023-12-20T02:32:21;1.55;;;0.50;;
39050;SDS011;24805;55.852;37.644;2023-12-20T02:37:28;2.35;;;0.50;;
39050;SDS011;24805;55.852;37.644;2023-12-20T02:42:30;1.60;;;0.60;;
39050;SDS011;24805;55.852;37.644;2023-12-20T02:47:32;3.38;;;0.40;;
39050;SDS011;24805;55.852;37.644;2023-12-20T02:52:34;2.33;;;0.40;;
39050;SDS011;24805;55.852;37.644;2023-12-20T02:57:36;2.35;;;0.35;;
39050;SDS011;24805;55.852;37.644;2023-12-20T03:02:43;0.57;;;0.20;;
39050;SDS011;24805;55.852;37.644;2023-12-20T03:07:46;3.58;;;0.57;;
39050;SDS011;24805;55.852;37.644;2023-12-20T03:12:48;1.58;;;0.45;;
39050;SDS011;24805;55.852;37.644;2023-12-20T03:17:51;1.75;;;0.40;;
39050;SDS011;24805;55.852;37.644;2023-12-20T03:22:53;1.35;;;0.40;;
39050;SDS011;24805;55.852;37.644;2023-12-20T03:27:55;2.92;;;0.60;;
39050;SDS011;24805;55.852;37.644;2023-12-20T03:32:58;1.10;;;0.43;;
39050;SDS011;24805;55.852;37.644;2023-12-20T03:38:00;4.75;;;0.70;;
39050;SDS011;24805;55.852;37.644;2023-12-20T03:43:02;1.95;;;0.40;;
39050;SDS011;24805;55.852;37.644;2023-12-20T03:48:05;2.78;;;0.50;;
39050;SDS011;24805;55.852;37.644;2023-12-20T03:53:07;2.60;;;0.60;;
39050;SDS011;24805;55.852;37.644;2023-12-20T03:58:10;3.00;;;0.70;;
39050;SDS011;24805;55.852;37.644;2023-12-20T04:03:12;2.92;;;0.50;;
39050;SDS011;24805;55.852;37.644;2023-12-20T04:08:15;1.98;;;0.73;;
39050;SDS011;24805;55.852;37.644;2023-12-20T04:13:17;1.25;;;0.60;;
39050;SDS011;24805;55.852;37.644;2023-12-20T04:18:20;1.45;;;1.13;;
39050;SDS011;24805;55.852;37.644;2023-12-20T04:23:22;3.55;;;1.55;;
39050;SDS011;24805;55.852;37.644;2023-12-20T04:28:24;3.28;;;1.45;;
39050;SDS011;24805;55.852;37.644;2023-12-20T04:33:27;2.58;;;1.50;;
39050;SDS011;24805;55.852;37.644;2023-12-20T04:38:29;2.95;;;1.50;;
39050;SDS011;24805;55.852;37.644;2023-12-20T04:43:31;2.60;;;1.25;;
39050;SDS011;24805;55.852;37.644;2023-12-20T04:48:34;2.85;;;1.45;;
39050;SDS011;24805;55.852;37.644;2023-12-20T04:53:36;2.35;;;1.05;;
39050;SDS011;24805;55.852;37.644;2023-12-20T04:58:38;3.25;;;1.60;;
39050;SDS011;24805;55.852;37.644;2023-12-20T05:03:40;3.90;;;1.40;;
39050;SDS011;24805;55.852;37.644;2023-12-20T05:08:43;2.65;;;1.50;;
39050;SDS011;24805;55.852;37.644;2023-12-20T05:13:45;6.07;;;1.90;;
39050;SDS011;24805;55.852;37.644;2023-12-20T05:18:51;4.63;;;1.77;;
39050;SDS011;24805;55.852;37.644;2023-12-20T05:23:54;5.03;;;2.35;;
39050;SDS011;24805;55.852;37.644;2023-12-20T05:28:56;2.78;;;1.40;;
39050;SDS011;24805;55.852;37.644;2023-12-20T05:33:59;5.00;;;1.50;;
39050;SDS011;24805;55.852;37.644;2023-12-20T05:39:01;5.30;;;2.38;;
39050;SDS011;24805;55.852;37.644;2023-12-20T05:44:05;3.58;;;1.98;;
39050;SDS011;24805;55.852;37.644;2023-12-20T05:49:07;5.10;;;1.95;;
39050;SDS011;24805;55.852;37.644;2023-12-20T05:54:09;5.63;;;2.20;;
39050;SDS011;24805;55.852;37.644;2023-12-20T05:59:12;4.07;;;1.98;;
39050;SDS011;24805;55.852;37.644;2023-12-20T06:04:14;5.22;;;2.33;;
39050;SDS011;24805;55.852;37.644;2023-12-20T06:09:16;3.20;;;2.10;;
39050;SDS011;24805;55.852;37.644;2023-12-20T06:14:19;3.97;;;1.85;;
39050;SDS011;24805;55.852;37.644;2023-12-20T06:19:21;4.05;;;1.55;;
39050;SDS011;24805;55.852;37.644;2023-12-20T06:24:23;4.55;;;2.08;;
39050;SDS011;24805;55.852;37.644;2023-12-20T06:29:29;4.15;;;1.48;;
39050;SDS011;24805;55.852;37.644;2023-12-20T06:34:32;6.43;;;2.28;;
39050;SDS011;24805;55.852;37.644;2023-12-20T06:39:35;2.67;;;1.85;;
39050;SDS011;24805;55.852;37.644;2023-12-20T06:44:37;4.28;;;1.33;;
39050;SDS011;24805;55.852;37.644;2023-12-20T06:49:40;4.18;;;2.00;;
39050;SDS011;24805;55.852;37.644;2023-12-20T06:54:43;5.13;;;1.80;;
39050;SDS011;24805;55.852;37.644;2023-12-20T06:59:45;4.28;;;1.80;;
39050;SDS011;24805;55.852;37.644;2023-12-20T07:04:47;5.03;;;1.95;;
39050;SDS011;24805;55.852;37.644;2023-12-20T07:09:50;2.58;;;1.67;;
39050;SDS011;24805;55.852;37.644;2023-12-20T07:14:52;3.45;;;1.20;;
39050;SDS011;24805;55.852;37.644;2023-12-20T07:19:54;6.82;;;1.60;;
39050;SDS011;24805;55.852;37.644;2023-12-20T07:24:57;2.47;;;1.38;;
39050;SDS011;24805;55.852;37.644;2023-12-20T07:30:00;2.83;;;1.13;;
39050;SDS011;24805;55.852;37.644;2023-12-20T07:35:05;3.50;;;1.25;;
39050;SDS011;24805;55.852;37.644;2023-12-20T07:40:07;6.15;;;1.75;;
39050;SDS011;24805;55.852;37.644;2023-12-20T07:45:10;3.30;;;1.40;;
39050;SDS011;24805;55.852;37.644;2023-12-20T07:50:13;3.22;;;1.25;;
39050;SDS011;24805;55.852;37.644;2023-12-20T07:55:16;2.75;;;1.27;;
39050;SDS011;24805;55.852;37.644;2023-12-20T08:00:18;5.75;;;1.42;;
39050;SDS011;24805;55.852;37.644;2023-12-20T08:05:21;2.58;;;1.00;;
39050;SDS011;24805;55.852;37.644;2023-12-20T08:10:24;1.92;;;0.70;;
39050;SDS011;24805;55.852;37.644;2023-12-20T08:15:27;3.83;;;1.00;;
39050;SDS011;24805;55.852;37.644;2023-12-20T08:20:29;2.83;;;1.00;;
39050;SDS011;24805;55.852;37.644;2023-12-20T08:25:41;2.42;;;0.80;;
39050;SDS011;24805;55.852;37.644;2023-12-20T08:30:44;3.67;;;0.90;;
39050;SDS011;24805;55.852;37.644;2023-12-20T08:35:47;3.53;;;1.23;;
39050;SDS011;24805;55.852;37.644;2023-12-20T08:40:49;4.90;;;0.80;;
39050;SDS011;24805;55.852;37.644;2023-12-20T08:45:51;5.38;;;1.25;;
39050;SDS011;24805;55.852;37.644;2023-12-20T08:50:54;2.05;;;0.80;;
39050;SDS011;24805;55.852;37.644;2023-12-20T08:55:56;2.15;;;1.00;;
39050;SDS011;24805;55.852;37.644;2023-12-20T09:01:02;1.80;;;0.70;;
39050;SDS011;24805;55.852;37.644;2023-12-20T09:06:05;2.03;;;0.80;;
39050;SDS011;24805;55.852;37.644;2023-12-20T09:11:08;1.90;;;0.73;;
39050;SDS011;24805;55.852;37.644;2023-12-20T09:16:10;3.22;;;0.90;;
39050;SDS011;24805;55.852;37.644;2023-12-20T09:21:14;3.00;;;1.40;;
39050;SDS011;24805;55.852;37.644;2023-12-20T09:26:17;2.20;;;1.08;;
39050;SDS011;24805;55.852;37.644;2023-12-20T09:31:19;2.38;;;1.40;;
39050;SDS011;24805;55.852;37.644;2023-12-20T09:36:21;3.75;;;1.52;;
39050;SDS011;24805;55.852;37.644;2023-12-20T09:41:23;2.35;;;1.00;;
39050;SDS011;24805;55.852;37.644;2023-12-20T09:46:30;2.10;;;1.08;;
39050;SDS011;24805;55.852;37.644;2023-12-20T09:51:34;1.45;;;0.80;;
39050;SDS011;24805;55.852;37.644;2023-12-20T09:56:38;3.28;;;0.73;;
39050;SDS011;24805;55.852;37.644;2023-12-20T10:01:40;3.85;;;0.95;;
39050;SDS011;24805;55.852;37.644;2023-12-20T10:06:44;1.45;;;0.80;;
39050;SDS011;24805;55.852;37.644;2023-12-20T10:11:46;2.53;;;0.90;;
39050;SDS011;24805;55.852;37.644;2023-12-20T10:16:48;2.92;;;1.20;;
39050;SDS011;24805;55.852;37.644;2023-12-20T10:21:51;2.28;;;1.00;;
39050;SDS011;24805;55.852;37.644;2023-12-20T10:27:03;1.40;;;0.93;;
39050;SDS011;24805;55.852;37.644;2023-12-20T10:37:28;2.67;;;0.90;;
39050;SDS011;24805;55.852;37.644;2023-12-20T10:42:30;2.25;;;1.00;;
39050;SDS011;24805;55.852;37.644;2023-12-20T10:47:33;1.67;;;1.10;;
39050;SDS011;24805;55.852;37.644;2023-12-20T10:52:40;2.30;;;0.93;;
39050;SDS011;24805;55.852;37.644;2023-12-20T10:57:45;1.98;;;0.80;;
39050;SDS011;24805;55.852;37.644;2023-12-20T11:02:52;1.42;;;0.75;;
39050;SDS011;24805;55.852;37.644;2023-12-20T11:08:10;2.50;;;0.85;;
39050;SDS011;24805;55.852;37.644;2023-12-20T11:13:57;1.27;;;0.50;;
39050;SDS011;24805;55.852;37.644;2023-12-20T11:18:44;4.45;;;0.80;;
39050;SDS011;24805;55.852;37.644;2023-12-20T11:23:47;1.77;;;0.70;;
39050;SDS011;24805;55.852;37.644;2023-12-20T11:28:49;1.77;;;0.80;;
39050;SDS011;24805;55.852;37.644;2023-12-20T11:33:51;1.70;;;0.65;;
39050;SDS011;24805;55.852;37.644;2023-12-20T11:39:20;1.65;;;0.95;;
39050;SDS011;24805;55.852;37.644;2023-12-20T11:44:25;2.10;;;1.00;;
39050;SDS011;24805;55.852;37.644;2023-12-20T11:49:28;2.00;;;0.70;;
39050;SDS011;24805;55.852;37.644;2023-12-20T11:54:32;2.10;;;1.10;;
39050;SDS011;24805;55.852;37.644;2023-12-20T11:59:36;3.42;;;0.98;;
39050;SDS011;24805;55.852;37.644;2023-12-20T12:04:38;3.75;;;1.10;;
39050;SDS011;24805;55.852;37.644;2023-12-20T12:09:43;2.63;;;1.05;;
39050;SDS011;24805;55.852;37.644;2023-12-20T12:14:46;2.92;;;1.10;;
39050;SDS011;24805;55.852;37.644;2023-12-20T12:19:48;3.45;;;0.47;;
39050;SDS011;24805;55.852;37.644;2023-12-20T12:24:51;1.92;;;0.80;;
39050;SDS011;24805;55.852;37.644;2023-12-20T12:30:00;1.42;;;0.60;;
39050;SDS011;24805;55.852;37.644;2023-12-20T12:35:07;2.28;;;0.90;;
39050;SDS011;24805;55.852;37.644;2023-12-20T12:40:11;1.83;;;0.55;;
39050;SDS011;24805;55.852;37.644;2023-12-20T12:45:15;1.63;;;0.65;;
39050;SDS011;24805;55.852;37.644;2023-12-20T12:50:17;3.63;;;0.77;;
39050;SDS011;24805;55.852;37.644;2023-12-20T12:55:20;3.45;;;0.52;;
39050;SDS011;24805;55.852;37.644;2023-12-20T13:00:22;2.30;;;0.80;;
39050;SDS011;24805;55.852;37.644;2023-12-20T13:05:26;2.65;;;0.95;;
39050;SDS011;24805;55.852;37.644;2023-12-20T13:10:28;3.38;;;1.00;;
39050;SDS011;24805;55.852;37.644;2023-12-20T13:15:30;2.38;;;0.82;;
39050;SDS011;24805;55.852;37.644;2023-12-20T13:20:33;1.50;;;0.70;;
39050;SDS011;24805;55.852;37.644;2023-12-20T13:25:35;3.92;;;1.23;;
39050;SDS011;24805;55.852;37.644;2023-12-20T13:30:38;7.15;;;1.00;;
39050;SDS011;24805;55.852;37.644;2023-12-20T13:35:41;4.63;;;1.17;;
39050;SDS011;24805;55.852;37.644;2023-12-20T13:40:43;1.52;;;0.57;;
39050;SDS011;24805;55.852;37.644;2023-12-20T13:45:45;2.20;;;0.43;;
39050;SDS011;24805;55.852;37.644;2023-12-20T13:50:48;2.47;;;0.82;;
39050;SDS011;24805;55.852;37.644;2023-12-20T13:55:50;2.88;;;0.70;;
39050;SDS011;24805;55.852;37.644;2023-12-20T14:00:53;1.52;;;0.80;;
39050;SDS011;24805;55.852;37.644;2023-12-20T14:05:55;1.58;;;0.70;;
39050;SDS011;24805;55.852;37.644;2023-12-20T14:10:58;2.00;;;0.82;;
39050;SDS011;24805;55.852;37.644;2023-12-20T14:16:00;3.17;;;0.60;;
39050;SDS011;24805;55.852;37.644;2023-12-20T14:21:03;1.88;;;0.88;;
39050;SDS011;24805;55.852;37.644;2023-12-20T14:26:07;1.10;;;0.60;;
39050;SDS011;24805;55.852;37.644;2023-12-20T14:31:13;1.98;;;1.10;;
39050;SDS011;24805;55.852;37.644;2023-12-20T14:36:15;2.70;;;0.73;;
39050;SDS011;24805;55.852;37.644;2023-12-20T14:41:19;2.33;;;1.00;;
39050;SDS011;24805;55.852;37.644;2023-12-20T14:46:21;2.08;;;0.90;;
39050;SDS011;24805;55.852;37.644;2023-12-20T14:51:24;1.90;;;0.95;;
39050;SDS011;24805;55.852;37.644;2023-12-20T14:56:26;1.88;;;0.77;;
39050;SDS011;24805;55.852;37.644;2023-12-20T15:01:29;1.50;;;0.63;;
39050;SDS011;24805;55.852;37.644;2023-12-20T15:06:33;2.53;;;1.27;;
39050;SDS011;24805;55.852;37.644;2023-12-20T15:11:35;2.92;;;1.10;;
39050;SDS011;24805;55.852;37.644;2023-12-20T15:16:37;2.25;;;0.50;;
39050;SDS011;24805;55.852;37.644;2023-12-20T15:21:40;1.17;;;0.65;;
39050;SDS011;24805;55.852;37.644;2023-12-20T15:26:48;1.10;;;0.63;;
39050;SDS011;24805;55.852;37.644;2023-12-20T15:31:51;3.40;;;0.90;;
39050;SDS011;24805;55.852;37.644;2023-12-20T15:36:53;1.60;;;0.85;;
39050;SDS011;24805;55.852;37.644;2023-12-20T15:41:56;2.22;;;0.98;;
39050;SDS011;24805;55.852;37.644;2023-12-20T15:46:58;2.00;;;1.10;;
39050;SDS011;24805;55.852;37.644;2023-12-20T15:52:01;3.15;;;1.10;;
39050;SDS011;24805;55.852;37.644;2023-12-20T15:57:07;3.22;;;1.52;;
39050;SDS011;24805;55.852;37.644;2023-12-20T16:02:11;2.13;;;1.20;;
39050;SDS011;24805;55.852;37.644;2023-12-20T16:07:13;4.13;;;1.30;;
39050;SDS011;24805;55.852;37.644;2023-12-20T16:12:16;3.00;;;1.25;;
39050;SDS011;24805;55.852;37.644;2023-12-20T16:17:18;4.30;;;1.50;;
39050;SDS011;24805;55.852;37.644;2023-12-20T16:22:21;5.63;;;2.20;;
39050;SDS011;24805;55.852;37.644;2023-12-20T16:27:23;3.60;;;1.48;;
39050;SDS011;24805;55.852;37.644;2023-12-20T16:32:26;4.97;;;1.20;;
39050;SDS011;24805;55.852;37.644;2023-12-20T16:37:28;3.85;;;1.30;;
39050;SDS011;24805;55.852;37.644;2023-12-20T16:42:31;3.88;;;1.30;;
39050;SDS011;24805;55.852;37.644;2023-12-20T16:47:33;4.43;;;1.10;;
39050;SDS011;24805;55.852;37.644;2023-12-20T16:52:36;4.90;;;1.45;;
39050;SDS011;24805;55.852;37.644;2023-12-20T16:57:38;4.72;;;1.50;;
39050;SDS011;24805;55.852;37.644;2023-12-20T17:02:41;5.18;;;1.92;;
39050;SDS011;24805;55.852;37.644;2023-12-20T17:07:44;3.60;;;1.20;;
39050;SDS011;24805;55.852;37.644;2023-12-20T17:12:46;2.70;;;1.23;;
39050;SDS011;24805;55.852;37.644;2023-12-20T17:17:49;2.38;;;1.30;;
39050;SDS011;24805;55.852;37.644;2023-12-20T17:22:52;3.78;;;1.08;;
39050;SDS011;24805;55.852;37.644;2023-12-20T17:27:54;2.10;;;0.90;;
39050;SDS011;24805;55.852;37.644;2023-12-20T17:32:58;2.25;;;0.90;;
39050;SDS011;24805;55.852;37.644;2023-12-20T17:38:00;3.20;;;1.17;;
39050;SDS011;24805;55.852;37.644;2023-12-20T17:43:03;3.72;;;1.27;;
39050;SDS011;24805;55.852;37.644;2023-12-20T17:48:05;1.83;;;0.80;;
39050;SDS011;24805;55.852;37.644;2023-12-20T17:53:08;2.22;;;1.10;;
39050;SDS011;24805;55.852;37.644;2023-12-20T17:58:13;1.50;;;0.70;;
39050;SDS011;24805;55.852;37.644;2023-12-20T18:03:17;2.47;;;1.00;;
39050;SDS011;24805;55.852;37.644;2023-12-20T18:08:20;1.45;;;0.30;;
39050;SDS011;24805;55.852;37.644;2023-12-20T18:13:22;1.48;;;0.57;;
39050;SDS011;24805;55.852;37.644;2023-12-20T18:18:25;3.90;;;0.77;;
39050;SDS011;24805;55.852;37.644;2023-12-20T18:23:27;1.88;;;0.77;;
39050;SDS011;24805;55.852;37.644;2023-12-20T18:28:29;4.00;;;0.90;;
39050;SDS011;24805;55.852;37.644;2023-12-20T18:33:32;1.98;;;0.98;;
39050;SDS011;24805;55.852;37.644;2023-12-20T18:38:37;2.22;;;0.47;;
39050;SDS011;24805;55.852;37.644;2023-12-20T18:43:40;1.70;;;0.50;;
39050;SDS011;24805;55.852;37.644;2023-12-20T18:48:42;3.03;;;0.80;;
39050;SDS011;24805;55.852;37.644;2023-12-20T18:53:46;2.45;;;0.57;;
39050;SDS011;24805;55.852;37.644;2023-12-20T18:58:49;2.42;;;0.68;;
39050;SDS011;24805;55.852;37.644;2023-12-20T19:03:51;2.90;;;0.57;;
39050;SDS011;24805;55.852;37.644;2023-12-20T19:08:53;1.50;;;0.60;;
39050;SDS011;24805;55.852;37.644;2023-12-20T19:13:56;2.20;;;0.70;;
39050;SDS011;24805;55.852;37.644;2023-12-20T19:18:58;3.22;;;0.80;;
39050;SDS011;24805;55.852;37.644;2023-12-20T19:24:00;2.65;;;0.80;;
39050;SDS011;24805;55.852;37.644;2023-12-20T19:29:02;2.10;;;0.73;;
39050;SDS011;24805;55.852;37.644;2023-12-20T19:34:04;2.95;;;0.75;;
39050;SDS011;24805;55.852;37.644;2023-12-20T19:39:07;2.60;;;0.75;;
39050;SDS011;24805;55.852;37.644;2023-12-20T19:44:09;3.55;;;0.98;;
39050;SDS011;24805;55.852;37.644;2023-12-20T19:49:12;3.67;;;0.75;;
39050;SDS011;24805;55.852;37.644;2023-12-20T19:54:14;4.30;;;0.70;;
39050;SDS011;24805;55.852;37.644;2023-12-20T19:59:16;1.85;;;0.90;;
39050;SDS011;24805;55.852;37.644;2023-12-20T20:04:19;5.57;;;1.05;;
39050;SDS011;24805;55.852;37.644;2023-12-20T20:09:21;2.05;;;0.98;;
39050;SDS011;24805;55.852;37.644;2023-12-20T20:14:23;4.55;;;1.17;;
39050;SDS011;24805;55.852;37.644;2023-12-20T20:19:29;5.57;;;1.27;;
39050;SDS011;24805;55.852;37.644;2023-12-20T20:24:32;3.10;;;0.75;;
39050;SDS011;24805;55.852;37.644;2023-12-20T20:29:34;2.17;;;0.95;;
39050;SDS011;24805;55.852;37.644;2023-12-20T20:34:37;2.97;;;0.70;;
39050;SDS011;24805;55.852;37.644;2023-12-20T20:39:39;1.20;;;0.60;;
39050;SDS011;24805;55.852;37.644;2023-12-20T20:44:42;3.40;;;0.70;;
39050;SDS011;24805;55.852;37.644;2023-12-20T20:49:45;2.40;;;0.98;;
39050;SDS011;24805;55.852;37.644;2023-12-20T20:54:47;2.65;;;0.65;;
39050;SDS011;24805;55.852;37.644;2023-12-20T20:59:50;4.65;;;1.45;;
39050;SDS011;24805;55.852;37.644;2023-12-20T21:04:52;5.75;;;1.20;;
39050;SDS011;24805;55.852;37.644;2023-12-20T21:09:54;3.25;;;1.15;;
39050;SDS011;24805;55.852;37.644;2023-12-20T21:14:56;2.55;;;1.05;;
39050;SDS011;24805;55.852;37.644;2023-12-20T21:19:59;3.80;;;1.30;;
39050;SDS011;24805;55.852;37.644;2023-12-20T21:25:02;2.05;;;1.02;;
39050;SDS011;24805;55.852;37.644;2023-12-20T21:30:06;3.05;;;1.20;;
39050;SDS011;24805;55.852;37.644;2023-12-20T21:35:11;3.83;;;1.30;;
39050;SDS011;24805;55.852;37.644;2023-12-20T21:40:14;10.20;;;5.57;;
39050;SDS011;24805;55.852;37.644;2023-12-20T21:45:16;3.25;;;1.45;;
39050;SDS011;24805;55.852;37.644;2023-12-20T21:50:19;3.40;;;1.58;;
39050;SDS011;24805;55.852;37.644;2023-12-20T21:55:23;4.05;;;1.90;;
39050;SDS011;24805;55.852;37.644;2023-12-20T22:00:26;2.75;;;1.73;;
39050;SDS011;24805;55.852;37.644;2023-12-20T22:05:29;7.20;;;2.10;;
39050;SDS011;24805;55.852;37.644;2023-12-20T22:10:31;5.20;;;1.85;;
39050;SDS011;24805;55.852;37.644;2023-12-20T22:15:33;7.93;;;2.47;;
39050;SDS011;24805;55.852;37.644;2023-12-20T22:20:36;4.93;;;2.10;;
39050;SDS011;24805;55.852;37.644;2023-12-20T22:25:41;7.90;;;3.72;;
39050;SDS011;24805;55.852;37.644;2023-12-20T22:30:44;7.15;;;3.15;;
39050;SDS011;24805;55.852;37.644;2023-12-20T22:35:47;7.97;;;2.30;;
39050;SDS011;24805;55.852;37.644;2023-12-20T22:40:50;6.72;;;3.00;;
39050;SDS011;24805;55.852;37.644;2023-12-20T22:45:52;5.88;;;2.35;;
39050;SDS011;24805;55.852;37.644;2023-12-20T22:50:56;4.07;;;2.00;;
39050;SDS011;24805;55.852;37.644;2023-12-20T22:55:58;6.45;;;2.75;;
39050;SDS011;24805;55.852;37.644;2023-12-20T23:01:00;6.10;;;3.15;;
39050;SDS011;24805;55.852;37.644;2023-12-20T23:06:03;9.43;;;3.60;;
39050;SDS011;24805;55.852;37.644;2023-12-20T23:11:06;4.70;;;3.08;;
39050;SDS011;24805;55.852;37.644;2023-12-20T23:16:08;6.00;;;3.05;;
39050;SDS011;24805;55.852;37.644;2023-12-20T23:21:13;7.55;;;3.80;;
39050;SDS011;24805;55.852;37.644;2023-12-20T23:26:17;12.23;;;4.63;;
39050;SDS011;24805;55.852;37.644;2023-12-20T23:31:22;8.98;;;4.40;;
39050;SDS011;24805;55.852;37.644;2023-12-20T23:36:28;8.88;;;5.25;;
39050;SDS011;24805;55.852;37.644;2023-12-20T23:41:30;9.48;;;6.03;;
39050;SDS011;24805;55.852;37.644;2023-12-20T23:46:32;6.95;;;5.35;;
39050;SDS011;24805;55.852;37.644;2023-12-20T23:51:34;9.23;;;6.10;;
39050;SDS011;24805;55.852;37.644;2023-12-20T23:56:37;11.93;;;6.68;;
